Weather observations for the past three days for
Eastern Oregon Regional Airport at Pendleton
Imperial (Metric)
Date Time (pdt) Wind (mph) Vis. (mi.) Weather Sky Cond. Temperature (ºF) Relative Humidity Wind Chill (°F) Heat Index (°F) Pressure Precipitation (in)
Air Dwpt 6 hour altimeter (in) sea level (mb) 1 hr 3 hr 6 hr
Max. Min.
06 05:53 S 5 10.00 Fair CLR 55 44.1 67% 29.96 1013.3
06 04:53 E 3 10.00 Fair CLR 48 44.1 61 48 86% 29.94 1012.7
06 03:53 SE 7 10.00 Fair CLR 52 46 80% 29.93 1012.1
06 02:53 E 7 10.00 Fair CLR 53.1 46 77% 29.92 1011.9
06 01:53 SE 7 10.00 Fair CLR 59 45 60% 29.91 1011.3
06 00:53 Vrbl 7 10.00 Fair CLR 57.9 45 62% 29.91 1011.5
05 23:53 SE 10 10.00 Fair CLR 59 46.9 64% 29.89 1011.0
05 22:53 SE 8 G 20 10.00 Fair CLR 61 48 80.1 61 63% 29.88 1010.6
05 21:53 S 8 10.00 Fair CLR 64.9 50 59% 29.88 1010.5
05 20:53 SE 5 10.00 Fair CLR 71.1 48 44% 29.87 1009.9
05 19:53 E 7 10.00 Fair CLR 71.1 48 44% 29.85 1009.6
05 18:53 N 8 10.00 Fair CLR 75.9 46.9 36% 78 29.84 1009.4
05 17:53 N 6 10.00 Fair CLR 79 45 30% 79 29.84 1009.3
05 16:53 Calm 10.00 Fair CLR 79 43 80.1 71.1 28% 78 29.85 1009.4
05 15:53 N 7 10.00 Fair CLR 79 42.1 27% 78 29.86 1009.8
05 14:53 NW 8 10.00 Fair CLR 79 45 30% 79 29.87 1010.1
05 13:53 NW 9 G 20 10.00 Fair CLR 78.1 46.9 33% 78 29.88 1010.4
05 12:53 W 9 10.00 Fair CLR 75.9 46 35% 78 29.89 1010.8
05 11:53 N 7 G 17 10.00 Fair CLR 73 46.9 40% 29.89 1010.9
05 10:53 W 12 G 18 10.00 Fair CLR 71.1 50 71.1 52 47% 29.89 1011.0
05 09:53 W 14 8.00 Fair CLR 69.1 50 51% 29.88 1010.6
05 08:53 SW 5 10.00 Fair CLR 66 48.9 54% 29.88 1010.4
05 07:53 SE 5 10.00 Fair CLR 61 48 63% 29.87 1010.1
05 06:53 SE 6 10.00 Fair CLR 55.9 46 70% 29.85 1009.5
05 05:53 SE 7 10.00 Fair CLR 52 45 77% 29.83 1008.8
05 04:53 SE 5 10.00 A Few Clouds FEW120 53.1 44.1 66.9 52 72% 29.81 1008.2
05 03:53 SE 5 10.00 Mostly Cloudy BKN120 55 46 72% 29.8 1007.6
05 02:53 SE 7 10.00 Fair CLR 57 46 67% 29.79 1007.1
05 01:53 E 8 10.00 Fair CLR 57 45 64% 29.78 1007.0
05 00:53 SE 8 10.00 Fair CLR 55 45 69% 29.78 1006.9
04 23:53 E 6 10.00 Fair CLR 60.1 44.1 56% 29.76 1006.3
04 22:53 SE 6 10.00 A Few Clouds FEW110 59 46 82 57.9 62% 29.75 1006.0
04 21:53 SE 7 10.00 Fair CLR 62.1 46 56% 29.73 1005.6
04 20:53 SE 5 10.00 Fair CLR 70 45 41% 29.72 1005.1
04 19:53 E 5 10.00 Fair CLR 73.9 44.1 34% 29.71 1004.8
04 18:53 N 7 10.00 Fair CLR 78.1 42.1 28% 78 29.71 1004.8
04 17:53 N 12 10.00 Fair CLR 81 39 22% 79 29.73 1005.3
04 16:53 N 9 G 20 10.00 Fair CLR 82 35.1 84 73 18% 80 29.73 1005.5
04 15:53 N 8 10.00 Fair CLR 82 41 23% 80 29.74 1005.8
04 14:53 N 12 G 17 10.00 Fair CLR 81 42.1 25% 79 29.76 1006.5
04 13:53 NW 7 10.00 Fair CLR 81 39 22% 79 29.78 1007.0
04 12:53 Vrbl 7 10.00 Fair CLR 79 42.1 27% 78 29.79 1007.4
04 11:53 Vrbl 7 10.00 Fair CLR 75 41 29% 77 29.8 1007.8
04 10:53 W 8 10.00 Fair CLR 73 41 73 50 32% 29.81 1008.1
04 09:53 W 7 10.00 Fair CLR 70 42.1 37% 29.81 1008.1
04 08:53 Calm 10.00 Fair CLR 66.9 44.1 44% 29.81 1008.1
04 07:53 S 8 10.00 Fair CLR 60.1 42.1 52% 29.8 1007.8
04 06:53 SE 9 10.00 Fair CLR 55.9 42.1 60% 29.8 1007.6
04 05:53 SE 12 10.00 Fair CLR 52 41 66% 29.79 1007.3
04 04:53 SE 9 10.00 Fair CLR 50 41 60.1 48.9 71% 47 29.79 1007.5
04 03:53 SE 12 10.00 Fair CLR 54 41 62% 29.79 1007.4
04 02:53 SE 9 10.00 Fair CLR 54 42.1 64% 29.8 1007.6
04 01:53 S 14 10.00 Fair CLR 55 43 64% 29.79 1007.4
04 00:53 SE 12 7.00 Fair CLR 55 44.1 67% 29.79 1007.6
03 23:53 SE 10 10.00 Fair CLR 57.9 45 62% 29.8 1007.6
03 22:53 SE 9 10.00 Fair CLR 60.1 45 82 57.9 58% 29.8 1007.8
03 21:53 SE 8 10.00 Fair CLR 63 43 48% 29.8 1007.9
03 20:53 NE 6 10.00 Fair CLR 64.9 41 42% 29.79 1007.6
03 19:53 N 6 10.00 Fair CLR 70 46 42% 29.79 1007.4
03 18:53 N 8 10.00 Fair CLR 78.1 41 27% 78 29.8 1007.8
03 17:53 N 7 10.00 Fair CLR 80.1 39 23% 79 29.82 1008.4
03 16:53 N 9 10.00 Fair CLR 82 39 82.9 73.9 22% 80 29.83 1008.8
03 15:53 NE 12 G 16 10.00 Fair CLR 82 37.9 21% 80 29.84 1009.3
03 14:53 N 5 10.00 Fair CLR 82 36 19% 80 29.86 1010.0
03 13:53 SW 5 10.00 Fair CLR 82 42.1 24% 80 29.88 1010.5
03 12:53 Vrbl 7 10.00 Fair CLR 79 39.9 25% 78 29.9 1011.3
03 11:53 Vrbl 3 10.00 Fair CLR 75.9 42.1 30% 77 29.93 1012.1
03 10:53 N 7 10.00 Fair CLR 73.9 44.1 73.9 48.9 34% 29.94 1012.6
03 09:53 Vrbl 6 10.00 Fair CLR 70 46 42% 29.95 1012.7
03 08:53 Calm 10.00 Fair CLR 64.9 44.1 47% 29.95 1013.0
03 07:53 SE 6 10.00 Fair CLR 61 44.1 54% 29.94 1012.7
03 06:53 E 6 10.00 Fair CLR 55 43 64% 29.94 1012.7
Date Time (pdt) Wind (mph) Vis. (mi.) Weather Sky Cond. Air Dwpt Max. Min. Relative Humidity Wind Chill (°F) Heat Index (°F) altimeter (in) sea level (mb) 1 hr 3 hr 6 hr
6 hour
Temperature (ºF) Pressure Precipitation (in)